Estación de Casa Rosada

Ultimos registro cada 15 minutos 86
Estación Fecha / Hora Temperatura Humedad Lluvia Velocidad Dirección Radiación Presion
86 Casa Rosada 07-05-2026 21:15 18,7 42 0 1,3 8 0 1012,5
85 Casa Rosada 07-05-2026 21:00 18,5 42 0 1,8 27 0 1012,4
84 Casa Rosada 07-05-2026 20:45 18,7 42 0 0,9 6 0 1012,3
83 Casa Rosada 07-05-2026 20:30 18,8 41 0 1,8 10 0 1012,2
82 Casa Rosada 07-05-2026 20:15 19,9 38 0 0,9 14 0 1012,1
81 Casa Rosada 07-05-2026 20:00 19,9 38 0 2,7 17 0 1012,1
80 Casa Rosada 07-05-2026 19:45 19,2 39 0 1,3 8 0 1012,1
79 Casa Rosada 07-05-2026 19:30 19,1 39 0 1,8 27 0 1011,8
78 Casa Rosada 07-05-2026 19:15 19,4 38 0 0,9 10 0 1011,4
77 Casa Rosada 07-05-2026 19:00 20,1 36 0 0,4 14 0 1011,2
76 Casa Rosada 07-05-2026 18:45 20,1 35 0 0,9 17 0 1011,2
75 Casa Rosada 07-05-2026 18:30 20,3 34 0 1,3 4 0 1011,1
74 Casa Rosada 07-05-2026 18:15 20,9 32 0 0,4 358 0 1010,7
73 Casa Rosada 07-05-2026 18:00 21,4 29 0 1,3 25 5 1010,5
72 Casa Rosada 07-05-2026 17:45 21,8 26 0 0,9 339 11 1010,2
71 Casa Rosada 07-05-2026 17:30 22,8 24 0 2,2 318 16 1010,3
70 Casa Rosada 07-05-2026 17:15 23,7 23 0 1,3 3 21 1010
69 Casa Rosada 07-05-2026 17:00 24,7 23 0 0,9 343 134 1009,9
68 Casa Rosada 07-05-2026 16:45 25,2 22 0 1,8 308 190 1010
67 Casa Rosada 07-05-2026 16:30 25,8 21 0 2,7 350 239 1010,1
66 Casa Rosada 07-05-2026 16:15 26,3 19 0 2,2 327 292 1009,9
65 Casa Rosada 07-05-2026 16:00 26,6 17 0 1,8 305 336 1009,7
64 Casa Rosada 07-05-2026 15:45 26,8 16 0 2,2 329 376 1009,9
63 Casa Rosada 07-05-2026 15:30 26,9 15 0 1,3 337 420 1010
62 Casa Rosada 07-05-2026 15:15 27 14 0 3,1 305 454 1010
61 Casa Rosada 07-05-2026 15:00 27,1 15 0 3,6 322 489 1010,3
60 Casa Rosada 07-05-2026 14:45 27,2 15 0 1,8 339 520 1010,3
59 Casa Rosada 07-05-2026 14:30 27 16 0 1,3 317 550 1010,6
58 Casa Rosada 07-05-2026 14:15 26,8 18 0 1,8 320 575 1010,8
57 Casa Rosada 07-05-2026 14:00 26,7 19 0 2,2 341 596 1011,4
56 Casa Rosada 07-05-2026 13:45 26,5 19 0 0,9 349 613 1011,7
55 Casa Rosada 07-05-2026 13:30 26,4 19 0 1,3 335 626 1011,9
54 Casa Rosada 07-05-2026 13:15 26,2 20 0 2,2 311 640 1012,1
53 Casa Rosada 07-05-2026 13:00 26,1 21 0 3,1 344 647 1012,1
52 Casa Rosada 07-05-2026 12:45 26,1 20 0 3,1 339 650 1012,1
51 Casa Rosada 07-05-2026 12:30 25,9 19 0 3,1 318 650 1012,2
50 Casa Rosada 07-05-2026 12:15 25,5 20 0 1,3 353 647 1012,5
49 Casa Rosada 07-05-2026 12:00 25,2 21 0 0,9 347 640 1013
48 Casa Rosada 07-05-2026 11:45 24,3 26 0 0,9 19 628 1013,4
47 Casa Rosada 07-05-2026 11:30 23,5 25 0 1,8 15 610 1013,8
46 Casa Rosada 07-05-2026 11:15 23,2 26 0 1,3 38 591 1014,2
45 Casa Rosada 07-05-2026 11:00 22,9 29 0 0,9 321 568 1014,6
44 Casa Rosada 07-05-2026 10:45 21,8 29 0 0,4 50 543 1014,9
43 Casa Rosada 07-05-2026 10:30 20,9 31 0 1,3 37 513 1015,5
42 Casa Rosada 07-05-2026 10:15 20,1 33 0 0,4 53 482 1016,2
41 Casa Rosada 07-05-2026 10:00 18,2 37 0 0,4 10 446 1017,2
40 Casa Rosada 07-05-2026 09:45 16,8 40 0 0,4 73 406 1017,7
39 Casa Rosada 07-05-2026 09:30 15,9 43 0 0,9 22 369 1018,4
38 Casa Rosada 07-05-2026 09:15 13,9 50 0 0,9 167 323 1018,7
37 Casa Rosada 07-05-2026 09:00 10,9 60 0 0,9 120 279 1018,2
36 Casa Rosada 07-05-2026 08:45 8,2 68 0 1,3 172 26 1017,9
35 Casa Rosada 07-05-2026 08:30 7,7 68 0 0,4 181 23 1017,4
34 Casa Rosada 07-05-2026 08:15 8,3 66 0 0,4 177 21 1017,3
33 Casa Rosada 07-05-2026 08:00 8,9 65 0 0,4 177 18 1017,2
32 Casa Rosada 07-05-2026 07:45 8,6 65 0 0,9 160 14 1017,4
31 Casa Rosada 07-05-2026 07:30 8,6 66 0 1,3 172 9 1017,4
30 Casa Rosada 07-05-2026 07:15 8,1 67 0 2,2 167 5 1017,2
29 Casa Rosada 07-05-2026 07:00 6,9 72 0 0,9 181 0 1017
28 Casa Rosada 07-05-2026 06:45 6,8 71 0 0,9 156 0 1016,7
27 Casa Rosada 07-05-2026 06:30 6,8 70 0 0,9 172 0 1016,3
26 Casa Rosada 07-05-2026 06:15 7,3 69 0 0,4 161 0 1016,3
25 Casa Rosada 07-05-2026 06:00 7,3 70 0 0,4 177 0 1016,5
24 Casa Rosada 07-05-2026 05:45 7,3 70 0 1,3 159 0 1016,4
23 Casa Rosada 07-05-2026 05:30 7,2 70 0 0,4 162 0 1016,4
22 Casa Rosada 07-05-2026 05:15 7,4 68 0 0,9 167 0 1016,4
21 Casa Rosada 07-05-2026 05:00 7,7 69 0 0,4 161 0 1016,3
20 Casa Rosada 07-05-2026 04:45 7,8 70 0 0,4 177 0 1016,1
19 Casa Rosada 07-05-2026 04:30 6,7 70 0 0,4 167 0 1016,2
18 Casa Rosada 07-05-2026 04:15 7,1 70 0 0,9 177 0 1016
17 Casa Rosada 07-05-2026 04:00 6,8 71 0 0 163 0 1015,9
16 Casa Rosada 07-05-2026 03:45 6,8 71 0 0,4 187 0 1015,6
15 Casa Rosada 07-05-2026 03:30 6,9 71 0 0,9 163 0 1015,7
14 Casa Rosada 07-05-2026 03:15 7 71 0 0,4 181 0 1015,6
13 Casa Rosada 07-05-2026 03:00 7,8 67 0 0 167 0 1015,6
12 Casa Rosada 07-05-2026 02:45 8,6 66 0 0 167 0 1015,6
11 Casa Rosada 07-05-2026 02:30 9,5 64 0 0 167 0 1015,7
10 Casa Rosada 07-05-2026 02:15 9,1 67 0 0,4 57 0 1015,5
9 Casa Rosada 07-05-2026 02:00 9,7 64 0 0,4 358 0 1015,5
8 Casa Rosada 07-05-2026 01:45 10,2 63 0 0 285 0 1015,5
7 Casa Rosada 07-05-2026 01:30 10,6 62 0 0 172 0 1015,3
6 Casa Rosada 07-05-2026 01:15 10,4 61 0 0 160 0 1015,6
5 Casa Rosada 07-05-2026 01:00 10,4 63 0 0,9 198 0 1015,5
4 Casa Rosada 07-05-2026 00:45 9,9 62 0 0,9 152 0 1015,5
3 Casa Rosada 07-05-2026 00:30 10,4 65 0 0,4 162 0 1015,4
2 Casa Rosada 07-05-2026 00:15 10,3 64 0 0,9 184 0 1015,5
1 Casa Rosada 07-05-2026 00:00 11,1 64 0 0,9 181 0 1015,6